sensor_id;sensor_type;location;lat;lon;timestamp;temperature;humidity
44121;DHT22;29783;52.504;13.478;2023-07-09T00:02:23;19.40;56.80
44121;DHT22;29783;52.504;13.478;2023-07-09T00:04:49;19.30;57.40
44121;DHT22;29783;52.504;13.478;2023-07-09T00:07:28;19.20;57.50
44121;DHT22;29783;52.504;13.478;2023-07-09T00:09:55;19.20;57.60
44121;DHT22;29783;52.504;13.478;2023-07-09T00:12:22;19.10;57.90
44121;DHT22;29783;52.504;13.478;2023-07-09T00:14:48;19.10;58.00
44121;DHT22;29783;52.504;13.478;2023-07-09T00:17:27;19.10;58.10
44121;DHT22;29783;52.504;13.478;2023-07-09T00:19:53;19.10;58.20
44121;DHT22;29783;52.504;13.478;2023-07-09T00:22:19;19.00;58.20
44121;DHT22;29783;52.504;13.478;2023-07-09T00:24:46;19.00;58.80
44121;DHT22;29783;52.504;13.478;2023-07-09T00:27:14;19.00;59.10
44121;DHT22;29783;52.504;13.478;2023-07-09T00:29:43;18.80;59.30
44121;DHT22;29783;52.504;13.478;2023-07-09T00:32:13;18.90;59.00
44121;DHT22;29783;52.504;13.478;2023-07-09T00:34:44;18.90;59.30
44121;DHT22;29783;52.504;13.478;2023-07-09T00:37:21;18.80;59.40
44121;DHT22;29783;52.504;13.478;2023-07-09T00:39:51;18.80;59.20
44121;DHT22;29783;52.504;13.478;2023-07-09T00:42:19;18.80;60.00
44121;DHT22;29783;52.504;13.478;2023-07-09T00:44:46;18.70;60.30
44121;DHT22;29783;52.504;13.478;2023-07-09T00:47:36;18.70;60.10
44121;DHT22;29783;52.504;13.478;2023-07-09T00:50:15;18.70;60.00
44121;DHT22;29783;52.504;13.478;2023-07-09T00:52:51;18.70;60.10
44121;DHT22;29783;52.504;13.478;2023-07-09T00:55:25;18.70;60.30
44121;DHT22;29783;52.504;13.478;2023-07-09T00:57:55;18.70;60.70
44121;DHT22;29783;52.504;13.478;2023-07-09T01:00:27;18.70;61.00
44121;DHT22;29783;52.504;13.478;2023-07-09T01:02:54;18.70;60.80
44121;DHT22;29783;52.504;13.478;2023-07-09T01:05:21;18.70;60.70
44121;DHT22;29783;52.504;13.478;2023-07-09T01:07:47;18.70;61.10
44121;DHT22;29783;52.504;13.478;2023-07-09T01:10:15;18.70;61.10
44121;DHT22;29783;52.504;13.478;2023-07-09T01:12:43;18.60;61.00
44121;DHT22;29783;52.504;13.478;2023-07-09T01:15:09;18.70;60.90
44121;DHT22;29783;52.504;13.478;2023-07-09T01:17:36;18.60;61.10
44121;DHT22;29783;52.504;13.478;2023-07-09T01:20:02;18.50;61.70
44121;DHT22;29783;52.504;13.478;2023-07-09T01:22:28;18.40;61.80
44121;DHT22;29783;52.504;13.478;2023-07-09T01:27:27;18.40;61.80
44121;DHT22;29783;52.504;13.478;2023-07-09T01:29:54;18.40;62.30
44121;DHT22;29783;52.504;13.478;2023-07-09T01:32:21;18.40;62.20
44121;DHT22;29783;52.504;13.478;2023-07-09T01:34:49;18.40;62.30
44121;DHT22;29783;52.504;13.478;2023-07-09T01:37:20;18.30;62.10
44121;DHT22;29783;52.504;13.478;2023-07-09T01:39:48;18.30;62.20
44121;DHT22;29783;52.504;13.478;2023-07-09T01:42:15;18.30;62.60
44121;DHT22;29783;52.504;13.478;2023-07-09T01:44:42;18.20;62.80
44121;DHT22;29783;52.504;13.478;2023-07-09T01:47:08;18.20;62.70
44121;DHT22;29783;52.504;13.478;2023-07-09T01:49:34;18.20;63.40
44121;DHT22;29783;52.504;13.478;2023-07-09T01:52:03;18.20;63.40
44121;DHT22;29783;52.504;13.478;2023-07-09T01:54:30;18.10;63.40
44121;DHT22;29783;52.504;13.478;2023-07-09T01:57:20;18.00;63.70
44121;DHT22;29783;52.504;13.478;2023-07-09T01:59:52;18.00;64.00
44121;DHT22;29783;52.504;13.478;2023-07-09T02:02:19;17.90;64.30
44121;DHT22;29783;52.504;13.478;2023-07-09T02:04:49;17.90;64.60
44121;DHT22;29783;52.504;13.478;2023-07-09T02:07:15;17.80;64.50
44121;DHT22;29783;52.504;13.478;2023-07-09T02:09:41;17.80;64.70
44121;DHT22;29783;52.504;13.478;2023-07-09T02:12:08;17.70;65.40
44121;DHT22;29783;52.504;13.478;2023-07-09T02:14:34;17.70;65.30
44121;DHT22;29783;52.504;13.478;2023-07-09T02:17:06;17.70;65.50
44121;DHT22;29783;52.504;13.478;2023-07-09T02:19:32;17.70;65.50
44121;DHT22;29783;52.504;13.478;2023-07-09T02:21:58;17.60;65.80
44121;DHT22;29783;52.504;13.478;2023-07-09T02:24:24;17.70;66.20
44121;DHT22;29783;52.504;13.478;2023-07-09T02:27:09;17.60;66.20
44121;DHT22;29783;52.504;13.478;2023-07-09T02:29:36;17.60;66.60
44121;DHT22;29783;52.504;13.478;2023-07-09T02:32:02;17.50;66.40
44121;DHT22;29783;52.504;13.478;2023-07-09T02:34:29;17.50;66.30
44121;DHT22;29783;52.504;13.478;2023-07-09T02:36:56;17.50;66.40
44121;DHT22;29783;52.504;13.478;2023-07-09T02:39:23;17.50;67.00
44121;DHT22;29783;52.504;13.478;2023-07-09T02:41:49;17.40;67.30
44121;DHT22;29783;52.504;13.478;2023-07-09T02:44:15;17.40;67.20
44121;DHT22;29783;52.504;13.478;2023-07-09T02:46:42;17.40;67.00
44121;DHT22;29783;52.504;13.478;2023-07-09T02:49:11;17.40;67.20
44121;DHT22;29783;52.504;13.478;2023-07-09T02:51:36;17.30;67.40
44121;DHT22;29783;52.504;13.478;2023-07-09T02:54:03;17.30;67.60
44121;DHT22;29783;52.504;13.478;2023-07-09T02:56:30;17.30;67.30
44121;DHT22;29783;52.504;13.478;2023-07-09T02:58:56;17.30;67.40
44121;DHT22;29783;52.504;13.478;2023-07-09T03:01:22;17.30;67.90
44121;DHT22;29783;52.504;13.478;2023-07-09T03:03:54;17.20;68.10
44121;DHT22;29783;52.504;13.478;2023-07-09T03:06:24;17.30;67.80
44121;DHT22;29783;52.504;13.478;2023-07-09T03:08:50;17.30;67.90
44121;DHT22;29783;52.504;13.478;2023-07-09T03:11:17;17.30;67.70
44121;DHT22;29783;52.504;13.478;2023-07-09T03:13:43;17.30;67.70
44121;DHT22;29783;52.504;13.478;2023-07-09T03:16:09;17.30;67.80
44121;DHT22;29783;52.504;13.478;2023-07-09T03:18:35;17.30;67.40
44121;DHT22;29783;52.504;13.478;2023-07-09T03:21:00;17.40;67.60
44121;DHT22;29783;52.504;13.478;2023-07-09T03:23:26;17.40;67.40
44121;DHT22;29783;52.504;13.478;2023-07-09T03:25:52;17.50;67.40
44121;DHT22;29783;52.504;13.478;2023-07-09T03:28:17;17.40;67.40
44121;DHT22;29783;52.504;13.478;2023-07-09T03:30:45;17.50;67.60
44121;DHT22;29783;52.504;13.478;2023-07-09T03:33:12;17.50;67.30
44121;DHT22;29783;52.504;13.478;2023-07-09T03:35:39;17.50;67.40
44121;DHT22;29783;52.504;13.478;2023-07-09T03:38:06;17.60;67.10
44121;DHT22;29783;52.504;13.478;2023-07-09T03:40:31;17.60;66.60
44121;DHT22;29783;52.504;13.478;2023-07-09T03:42:58;17.70;66.40
44121;DHT22;29783;52.504;13.478;2023-07-09T03:45:23;17.70;66.80
44121;DHT22;29783;52.504;13.478;2023-07-09T03:47:49;17.70;66.50
44121;DHT22;29783;52.504;13.478;2023-07-09T03:50:15;17.80;66.90
44121;DHT22;29783;52.504;13.478;2023-07-09T03:52:41;17.80;66.50
44121;DHT22;29783;52.504;13.478;2023-07-09T03:55:08;17.90;66.10
44121;DHT22;29783;52.504;13.478;2023-07-09T03:57:34;17.90;66.80
44121;DHT22;29783;52.504;13.478;2023-07-09T04:00:01;18.00;66.60
44121;DHT22;29783;52.504;13.478;2023-07-09T04:02:28;18.00;66.70
44121;DHT22;29783;52.504;13.478;2023-07-09T04:04:53;18.10;66.50
44121;DHT22;29783;52.504;13.478;2023-07-09T04:07:19;18.20;65.50
44121;DHT22;29783;52.504;13.478;2023-07-09T04:09:45;18.20;65.50
44121;DHT22;29783;52.504;13.478;2023-07-09T04:12:11;18.20;65.20
44121;DHT22;29783;52.504;13.478;2023-07-09T04:14:37;18.30;65.40
44121;DHT22;29783;52.504;13.478;2023-07-09T04:17:03;18.30;65.30
44121;DHT22;29783;52.504;13.478;2023-07-09T04:19:29;18.30;65.10
44121;DHT22;29783;52.504;13.478;2023-07-09T04:21:55;18.40;65.30
44121;DHT22;29783;52.504;13.478;2023-07-09T04:24:20;18.50;64.60
44121;DHT22;29783;52.504;13.478;2023-07-09T04:26:47;18.60;65.00
44121;DHT22;29783;52.504;13.478;2023-07-09T04:29:13;18.70;64.50
44121;DHT22;29783;52.504;13.478;2023-07-09T04:31:40;18.70;64.10
44121;DHT22;29783;52.504;13.478;2023-07-09T04:34:06;18.80;63.60
44121;DHT22;29783;52.504;13.478;2023-07-09T04:36:31;18.90;63.30
44121;DHT22;29783;52.504;13.478;2023-07-09T04:38:57;19.00;63.00
44121;DHT22;29783;52.504;13.478;2023-07-09T04:41:23;19.10;63.30
44121;DHT22;29783;52.504;13.478;2023-07-09T04:43:49;19.20;63.40
44121;DHT22;29783;52.504;13.478;2023-07-09T04:46:15;19.20;62.40
44121;DHT22;29783;52.504;13.478;2023-07-09T04:48:40;19.30;62.00
44121;DHT22;29783;52.504;13.478;2023-07-09T04:51:06;19.40;61.90
44121;DHT22;29783;52.504;13.478;2023-07-09T04:53:32;19.40;61.80
44121;DHT22;29783;52.504;13.478;2023-07-09T04:55:57;19.60;61.00
44121;DHT22;29783;52.504;13.478;2023-07-09T04:58:23;19.70;60.40
44121;DHT22;29783;52.504;13.478;2023-07-09T05:00:49;19.70;61.10
44121;DHT22;29783;52.504;13.478;2023-07-09T05:03:17;19.80;60.50
44121;DHT22;29783;52.504;13.478;2023-07-09T05:05:45;19.90;60.80
44121;DHT22;29783;52.504;13.478;2023-07-09T05:08:11;19.90;60.90
44121;DHT22;29783;52.504;13.478;2023-07-09T05:10:43;20.10;60.90
44121;DHT22;29783;52.504;13.478;2023-07-09T05:13:09;20.20;59.10
44121;DHT22;29783;52.504;13.478;2023-07-09T05:15:35;20.20;59.30
44121;DHT22;29783;52.504;13.478;2023-07-09T05:18:01;20.30;59.20
44121;DHT22;29783;52.504;13.478;2023-07-09T05:20:26;20.40;58.70
44121;DHT22;29783;52.504;13.478;2023-07-09T05:22:52;20.50;57.90
44121;DHT22;29783;52.504;13.478;2023-07-09T05:25:18;20.60;57.80
44121;DHT22;29783;52.504;13.478;2023-07-09T05:27:44;20.70;57.60
44121;DHT22;29783;52.504;13.478;2023-07-09T05:30:09;20.70;56.50
44121;DHT22;29783;52.504;13.478;2023-07-09T05:32:37;20.90;56.40
44121;DHT22;29783;52.504;13.478;2023-07-09T05:35:03;21.00;56.30
44121;DHT22;29783;52.504;13.478;2023-07-09T05:37:29;21.10;56.40
44121;DHT22;29783;52.504;13.478;2023-07-09T05:39:55;21.20;56.20
44121;DHT22;29783;52.504;13.478;2023-07-09T05:42:20;21.30;55.90
44121;DHT22;29783;52.504;13.478;2023-07-09T05:44:46;21.30;55.00
44121;DHT22;29783;52.504;13.478;2023-07-09T05:47:12;21.40;55.00
44121;DHT22;29783;52.504;13.478;2023-07-09T05:49:38;21.50;55.20
44121;DHT22;29783;52.504;13.478;2023-07-09T05:52:04;21.60;54.80
44121;DHT22;29783;52.504;13.478;2023-07-09T05:54:30;21.70;55.20
44121;DHT22;29783;52.504;13.478;2023-07-09T05:56:56;21.70;54.80
44121;DHT22;29783;52.504;13.478;2023-07-09T05:59:22;21.90;54.90
44121;DHT22;29783;52.504;13.478;2023-07-09T06:01:47;21.90;55.10
44121;DHT22;29783;52.504;13.478;2023-07-09T06:04:13;22.00;54.30
44121;DHT22;29783;52.504;13.478;2023-07-09T06:06:39;22.10;54.30
44121;DHT22;29783;52.504;13.478;2023-07-09T06:09:07;22.20;54.20
44121;DHT22;29783;52.504;13.478;2023-07-09T06:11:34;22.30;53.90
44121;DHT22;29783;52.504;13.478;2023-07-09T06:13:59;22.40;53.50
44121;DHT22;29783;52.504;13.478;2023-07-09T06:16:25;22.60;53.50
44121;DHT22;29783;52.504;13.478;2023-07-09T06:18:51;22.60;52.90
44121;DHT22;29783;52.504;13.478;2023-07-09T06:21:17;22.70;52.30
44121;DHT22;29783;52.504;13.478;2023-07-09T06:23:42;22.80;53.00
44121;DHT22;29783;52.504;13.478;2023-07-09T06:26:08;22.90;52.70
44121;DHT22;29783;52.504;13.478;2023-07-09T06:28:34;23.10;52.30
44121;DHT22;29783;52.504;13.478;2023-07-09T06:31:00;23.10;52.50
44121;DHT22;29783;52.504;13.478;2023-07-09T06:33:26;23.30;52.20
44121;DHT22;29783;52.504;13.478;2023-07-09T06:35:56;23.40;51.60
44121;DHT22;29783;52.504;13.478;2023-07-09T06:38:22;23.50;50.80
44121;DHT22;29783;52.504;13.478;2023-07-09T06:40:48;23.60;51.20
44121;DHT22;29783;52.504;13.478;2023-07-09T06:43:14;23.70;50.50
44121;DHT22;29783;52.504;13.478;2023-07-09T06:45:57;23.80;50.70
44121;DHT22;29783;52.504;13.478;2023-07-09T06:48:24;23.90;49.90
44121;DHT22;29783;52.504;13.478;2023-07-09T06:50:52;24.00;49.80
44121;DHT22;29783;52.504;13.478;2023-07-09T06:53:19;24.00;49.60
44121;DHT22;29783;52.504;13.478;2023-07-09T06:55:46;24.00;49.90
44121;DHT22;29783;52.504;13.478;2023-07-09T06:58:11;24.20;49.90
44121;DHT22;29783;52.504;13.478;2023-07-09T07:00:37;24.20;49.80
44121;DHT22;29783;52.504;13.478;2023-07-09T07:03:04;24.30;49.10
44121;DHT22;29783;52.504;13.478;2023-07-09T07:05:30;24.40;49.70
44121;DHT22;29783;52.504;13.478;2023-07-09T07:07:56;24.60;49.70
44121;DHT22;29783;52.504;13.478;2023-07-09T07:10:22;24.70;48.70
44121;DHT22;29783;52.504;13.478;2023-07-09T07:12:48;24.80;49.20
44121;DHT22;29783;52.504;13.478;2023-07-09T07:15:16;24.80;48.00
44121;DHT22;29783;52.504;13.478;2023-07-09T07:17:42;24.90;48.30
44121;DHT22;29783;52.504;13.478;2023-07-09T07:20:10;25.10;48.70
44121;DHT22;29783;52.504;13.478;2023-07-09T07:22:37;25.20;48.10
44121;DHT22;29783;52.504;13.478;2023-07-09T07:25:04;25.20;47.40
44121;DHT22;29783;52.504;13.478;2023-07-09T07:27:30;25.20;47.50
44121;DHT22;29783;52.504;13.478;2023-07-09T07:29:55;25.40;47.80
44121;DHT22;29783;52.504;13.478;2023-07-09T07:32:21;25.60;47.30
44121;DHT22;29783;52.504;13.478;2023-07-09T07:34:47;25.70;47.40
44121;DHT22;29783;52.504;13.478;2023-07-09T07:37:14;25.70;46.90
44121;DHT22;29783;52.504;13.478;2023-07-09T07:39:39;25.70;46.90
44121;DHT22;29783;52.504;13.478;2023-07-09T07:42:06;25.80;47.40
44121;DHT22;29783;52.504;13.478;2023-07-09T07:44:31;25.90;47.20
44121;DHT22;29783;52.504;13.478;2023-07-09T07:46:57;26.10;46.00
44121;DHT22;29783;52.504;13.478;2023-07-09T07:49:23;26.10;46.60
44121;DHT22;29783;52.504;13.478;2023-07-09T07:51:48;26.20;46.40
44121;DHT22;29783;52.504;13.478;2023-07-09T07:54:14;26.20;45.80
44121;DHT22;29783;52.504;13.478;2023-07-09T07:56:40;26.30;45.90
44121;DHT22;29783;52.504;13.478;2023-07-09T07:59:06;26.40;45.90
44121;DHT22;29783;52.504;13.478;2023-07-09T08:01:32;26.50;45.70
44121;DHT22;29783;52.504;13.478;2023-07-09T08:04:01;26.60;45.60
44121;DHT22;29783;52.504;13.478;2023-07-09T08:06:26;26.60;45.60
44121;DHT22;29783;52.504;13.478;2023-07-09T08:08:52;26.70;45.30
44121;DHT22;29783;52.504;13.478;2023-07-09T08:11:18;26.90;44.90
44121;DHT22;29783;52.504;13.478;2023-07-09T08:13:43;26.90;44.90
44121;DHT22;29783;52.504;13.478;2023-07-09T08:16:09;27.00;44.30
44121;DHT22;29783;52.504;13.478;2023-07-09T08:18:37;27.10;44.40
44121;DHT22;29783;52.504;13.478;2023-07-09T08:21:03;27.20;44.00
44121;DHT22;29783;52.504;13.478;2023-07-09T08:23:29;27.30;43.60
44121;DHT22;29783;52.504;13.478;2023-07-09T08:26:00;27.40;43.90
44121;DHT22;29783;52.504;13.478;2023-07-09T08:28:27;27.50;44.00
44121;DHT22;29783;52.504;13.478;2023-07-09T08:30:53;27.60;43.60
44121;DHT22;29783;52.504;13.478;2023-07-09T08:33:19;27.70;42.20
44121;DHT22;29783;52.504;13.478;2023-07-09T08:35:45;27.90;42.30
44121;DHT22;29783;52.504;13.478;2023-07-09T08:38:11;27.90;42.60
44121;DHT22;29783;52.504;13.478;2023-07-09T08:40:40;28.10;41.60
44121;DHT22;29783;52.504;13.478;2023-07-09T08:46:24;28.00;41.30
44121;DHT22;29783;52.504;13.478;2023-07-09T08:48:52;28.00;41.30
44121;DHT22;29783;52.504;13.478;2023-07-09T08:51:40;28.10;41.20
44121;DHT22;29783;52.504;13.478;2023-07-09T08:54:26;28.20;41.20
44121;DHT22;29783;52.504;13.478;2023-07-09T08:56:53;28.40;39.80
44121;DHT22;29783;52.504;13.478;2023-07-09T08:59:19;28.60;39.70
44121;DHT22;29783;52.504;13.478;2023-07-09T09:01:53;28.60;39.20
44121;DHT22;29783;52.504;13.478;2023-07-09T09:04:31;28.70;39.50
44121;DHT22;29783;52.504;13.478;2023-07-09T09:09:41;28.90;38.50
44121;DHT22;29783;52.504;13.478;2023-07-09T09:12:23;29.10;38.60
44121;DHT22;29783;52.504;13.478;2023-07-09T09:14:58;29.20;37.80
44121;DHT22;29783;52.504;13.478;2023-07-09T09:17:25;29.20;37.70
44121;DHT22;29783;52.504;13.478;2023-07-09T09:20:08;29.30;36.70
44121;DHT22;29783;52.504;13.478;2023-07-09T09:23:10;29.30;35.70
44121;DHT22;29783;52.504;13.478;2023-07-09T09:25:40;29.20;36.30
44121;DHT22;29783;52.504;13.478;2023-07-09T09:28:07;29.50;36.70
44121;DHT22;29783;52.504;13.478;2023-07-09T09:30:33;29.50;36.70
44121;DHT22;29783;52.504;13.478;2023-07-09T09:33:01;29.60;34.60
44121;DHT22;29783;52.504;13.478;2023-07-09T09:35:36;29.70;35.30
44121;DHT22;29783;52.504;13.478;2023-07-09T09:38:08;29.90;35.20
44121;DHT22;29783;52.504;13.478;2023-07-09T09:40:35;30.00;34.40
44121;DHT22;29783;52.504;13.478;2023-07-09T09:43:02;30.10;33.10
44121;DHT22;29783;52.504;13.478;2023-07-09T09:45:34;30.20;33.40
44121;DHT22;29783;52.504;13.478;2023-07-09T09:48:02;30.30;33.40
44121;DHT22;29783;52.504;13.478;2023-07-09T09:50:35;30.50;33.40
44121;DHT22;29783;52.504;13.478;2023-07-09T09:53:01;30.40;33.20
44121;DHT22;29783;52.504;13.478;2023-07-09T09:55:31;30.40;33.70
44121;DHT22;29783;52.504;13.478;2023-07-09T09:57:58;30.60;33.80
44121;DHT22;29783;52.504;13.478;2023-07-09T10:00:26;30.60;32.80
44121;DHT22;29783;52.504;13.478;2023-07-09T10:03:01;30.50;33.00
44121;DHT22;29783;52.504;13.478;2023-07-09T10:05:44;30.50;33.30
44121;DHT22;29783;52.504;13.478;2023-07-09T10:16:46;30.60;33.40
44121;DHT22;29783;52.504;13.478;2023-07-09T10:33:10;31.00;32.20
44121;DHT22;29783;52.504;13.478;2023-07-09T10:39:00;30.90;32.50
44121;DHT22;29783;52.504;13.478;2023-07-09T10:41:26;30.90;32.20
44121;DHT22;29783;52.504;13.478;2023-07-09T10:43:56;31.00;32.40
44121;DHT22;29783;52.504;13.478;2023-07-09T10:46:25;31.20;33.40
44121;DHT22;29783;52.504;13.478;2023-07-09T10:48:53;31.10;32.60
44121;DHT22;29783;52.504;13.478;2023-07-09T10:51:39;31.20;32.60
44121;DHT22;29783;52.504;13.478;2023-07-09T10:54:16;31.30;32.50
44121;DHT22;29783;52.504;13.478;2023-07-09T10:56:47;31.40;32.80
44121;DHT22;29783;52.504;13.478;2023-07-09T10:59:34;31.60;33.00
44121;DHT22;29783;52.504;13.478;2023-07-09T11:02:21;31.60;32.00
44121;DHT22;29783;52.504;13.478;2023-07-09T11:04:58;31.50;32.20
44121;DHT22;29783;52.504;13.478;2023-07-09T11:07:52;31.40;31.70
44121;DHT22;29783;52.504;13.478;2023-07-09T11:10:27;31.70;32.30
44121;DHT22;29783;52.504;13.478;2023-07-09T11:13:05;31.80;32.10
44121;DHT22;29783;52.504;13.478;2023-07-09T11:15:37;32.10;32.90
44121;DHT22;29783;52.504;13.478;2023-07-09T11:18:06;32.50;32.00
44121;DHT22;29783;52.504;13.478;2023-07-09T11:20:35;32.60;31.70
44121;DHT22;29783;52.504;13.478;2023-07-09T11:23:06;32.60;30.80
44121;DHT22;29783;52.504;13.478;2023-07-09T11:25:47;32.60;31.20
44121;DHT22;29783;52.504;13.478;2023-07-09T11:28:13;32.50;31.10
44121;DHT22;29783;52.504;13.478;2023-07-09T11:33:16;32.60;32.70
44121;DHT22;29783;52.504;13.478;2023-07-09T11:36:06;32.90;31.90
44121;DHT22;29783;52.504;13.478;2023-07-09T11:38:39;33.10;31.20
44121;DHT22;29783;52.504;13.478;2023-07-09T11:43:50;33.40;30.90
44121;DHT22;29783;52.504;13.478;2023-07-09T11:46:22;33.70;30.70
44121;DHT22;29783;52.504;13.478;2023-07-09T11:48:49;33.40;30.10
44121;DHT22;29783;52.504;13.478;2023-07-09T11:51:34;33.20;30.50
44121;DHT22;29783;52.504;13.478;2023-07-09T11:54:02;33.20;31.50
44121;DHT22;29783;52.504;13.478;2023-07-09T11:56:28;33.40;30.70
44121;DHT22;29783;52.504;13.478;2023-07-09T11:58:56;33.70;30.20
44121;DHT22;29783;52.504;13.478;2023-07-09T12:01:26;33.70;29.70
44121;DHT22;29783;52.504;13.478;2023-07-09T12:03:52;33.40;29.10
44121;DHT22;29783;52.504;13.478;2023-07-09T12:06:22;33.40;29.70
44121;DHT22;29783;52.504;13.478;2023-07-09T12:08:49;33.40;29.60
44121;DHT22;29783;52.504;13.478;2023-07-09T12:11:27;33.20;29.10
44121;DHT22;29783;52.504;13.478;2023-07-09T12:13:54;33.40;29.50
44121;DHT22;29783;52.504;13.478;2023-07-09T12:18:48;35.20;27.10
44121;DHT22;29783;52.504;13.478;2023-07-09T12:21:14;36.20;26.60
44121;DHT22;29783;52.504;13.478;2023-07-09T12:23:40;36.60;25.80
44121;DHT22;29783;52.504;13.478;2023-07-09T12:26:10;37.40;25.00
44121;DHT22;29783;52.504;13.478;2023-07-09T12:28:37;37.90;24.70
44121;DHT22;29783;52.504;13.478;2023-07-09T12:31:02;38.10;24.50
44121;DHT22;29783;52.504;13.478;2023-07-09T12:33:28;38.40;23.80
44121;DHT22;29783;52.504;13.478;2023-07-09T12:36:02;39.00;23.10
44121;DHT22;29783;52.504;13.478;2023-07-09T12:38:44;39.20;22.20
44121;DHT22;29783;52.504;13.478;2023-07-09T12:41:26;39.60;22.30
44121;DHT22;29783;52.504;13.478;2023-07-09T12:43:53;39.90;22.30
44121;DHT22;29783;52.504;13.478;2023-07-09T12:46:21;40.20;21.50
44121;DHT22;29783;52.504;13.478;2023-07-09T12:48:48;39.90;21.80
44121;DHT22;29783;52.504;13.478;2023-07-09T12:51:18;40.00;22.10
44121;DHT22;29783;52.504;13.478;2023-07-09T12:53:46;40.70;21.60
44121;DHT22;29783;52.504;13.478;2023-07-09T12:56:13;41.20;21.10
44121;DHT22;29783;52.504;13.478;2023-07-09T12:58:40;40.60;22.20
44121;DHT22;29783;52.504;13.478;2023-07-09T13:01:15;41.00;20.70
44121;DHT22;29783;52.504;13.478;2023-07-09T13:03:41;41.30;21.00
44121;DHT22;29783;52.504;13.478;2023-07-09T13:06:28;41.40;20.40
44121;DHT22;29783;52.504;13.478;2023-07-09T13:09:00;41.60;20.60
44121;DHT22;29783;52.504;13.478;2023-07-09T13:11:35;41.90;20.10
44121;DHT22;29783;52.504;13.478;2023-07-09T13:14:19;41.90;20.30
44121;DHT22;29783;52.504;13.478;2023-07-09T13:16:45;41.70;20.30
44121;DHT22;29783;52.504;13.478;2023-07-09T13:19:11;40.90;20.90
44121;DHT22;29783;52.504;13.478;2023-07-09T13:21:38;40.80;21.40
44121;DHT22;29783;52.504;13.478;2023-07-09T13:24:25;41.20;21.80
44121;DHT22;29783;52.504;13.478;2023-07-09T13:26:53;41.70;20.60
44121;DHT22;29783;52.504;13.478;2023-07-09T13:29:20;42.30;19.90
44121;DHT22;29783;52.504;13.478;2023-07-09T13:31:47;41.60;21.10
44121;DHT22;29783;52.504;13.478;2023-07-09T13:34:22;42.10;20.20
44121;DHT22;29783;52.504;13.478;2023-07-09T13:36:49;42.50;19.80
44121;DHT22;29783;52.504;13.478;2023-07-09T13:39:15;42.10;19.70
44121;DHT22;29783;52.504;13.478;2023-07-09T13:41:46;41.50;21.50
44121;DHT22;29783;52.504;13.478;2023-07-09T13:44:18;41.30;21.10
44121;DHT22;29783;52.504;13.478;2023-07-09T13:46:44;41.60;20.60
44121;DHT22;29783;52.504;13.478;2023-07-09T13:49:15;41.40;20.90
44121;DHT22;29783;52.504;13.478;2023-07-09T13:51:42;41.30;20.00
44121;DHT22;29783;52.504;13.478;2023-07-09T13:54:33;41.10;20.40
44121;DHT22;29783;52.504;13.478;2023-07-09T13:57:05;41.20;20.60
44121;DHT22;29783;52.504;13.478;2023-07-09T13:59:31;41.30;21.00
44121;DHT22;29783;52.504;13.478;2023-07-09T14:01:58;42.00;19.90
44121;DHT22;29783;52.504;13.478;2023-07-09T14:04:25;41.80;19.70
44121;DHT22;29783;52.504;13.478;2023-07-09T14:06:52;42.30;19.10
44121;DHT22;29783;52.504;13.478;2023-07-09T14:09:18;41.40;20.40
44121;DHT22;29783;52.504;13.478;2023-07-09T14:11:52;42.10;19.50
44121;DHT22;29783;52.504;13.478;2023-07-09T14:14:25;41.90;19.50
44121;DHT22;29783;52.504;13.478;2023-07-09T14:16:51;41.60;19.60
44121;DHT22;29783;52.504;13.478;2023-07-09T14:19:22;42.10;19.20
44121;DHT22;29783;52.504;13.478;2023-07-09T14:21:49;43.10;19.00
44121;DHT22;29783;52.504;13.478;2023-07-09T14:24:27;43.30;18.50
44121;DHT22;29783;52.504;13.478;2023-07-09T14:26:55;42.50;18.90
44121;DHT22;29783;52.504;13.478;2023-07-09T14:29:22;42.10;19.50
44121;DHT22;29783;52.504;13.478;2023-07-09T14:31:48;42.10;19.30
44121;DHT22;29783;52.504;13.478;2023-07-09T14:34:29;41.80;20.30
44121;DHT22;29783;52.504;13.478;2023-07-09T14:36:59;41.70;19.60
44121;DHT22;29783;52.504;13.478;2023-07-09T14:39:27;42.10;20.00
44121;DHT22;29783;52.504;13.478;2023-07-09T14:41:53;42.10;19.70
44121;DHT22;29783;52.504;13.478;2023-07-09T14:44:21;41.90;19.80
44121;DHT22;29783;52.504;13.478;2023-07-09T14:46:48;42.30;19.10
44121;DHT22;29783;52.504;13.478;2023-07-09T14:49:15;41.80;19.80
44121;DHT22;29783;52.504;13.478;2023-07-09T14:51:41;41.20;20.10
44121;DHT22;29783;52.504;13.478;2023-07-09T14:54:29;40.80;21.00
44121;DHT22;29783;52.504;13.478;2023-07-09T14:56:57;41.20;20.90
44121;DHT22;29783;52.504;13.478;2023-07-09T14:59:24;42.00;19.50
44121;DHT22;29783;52.504;13.478;2023-07-09T15:01:50;42.10;19.50
44121;DHT22;29783;52.504;13.478;2023-07-09T15:04:25;42.10;19.40
44121;DHT22;29783;52.504;13.478;2023-07-09T15:06:53;41.60;20.20
44121;DHT22;29783;52.504;13.478;2023-07-09T15:09:21;41.50;21.00
44121;DHT22;29783;52.504;13.478;2023-07-09T15:11:49;41.60;20.30
44121;DHT22;29783;52.504;13.478;2023-07-09T15:14:16;41.70;20.70
44121;DHT22;29783;52.504;13.478;2023-07-09T15:16:41;42.40;19.50
44121;DHT22;29783;52.504;13.478;2023-07-09T15:19:15;42.10;20.50
44121;DHT22;29783;52.504;13.478;2023-07-09T15:21:41;41.70;20.20
44121;DHT22;29783;52.504;13.478;2023-07-09T15:24:17;41.80;20.30
44121;DHT22;29783;52.504;13.478;2023-07-09T15:26:46;41.30;21.20
44121;DHT22;29783;52.504;13.478;2023-07-09T15:29:14;41.10;21.50
44121;DHT22;29783;52.504;13.478;2023-07-09T15:31:40;41.20;20.80
44121;DHT22;29783;52.504;13.478;2023-07-09T15:34:06;40.60;20.90
44121;DHT22;29783;52.504;13.478;2023-07-09T15:36:32;40.30;21.40
44121;DHT22;29783;52.504;13.478;2023-07-09T15:38:58;40.90;20.80
44121;DHT22;29783;52.504;13.478;2023-07-09T15:41:23;41.50;20.10
44121;DHT22;29783;52.504;13.478;2023-07-09T15:43:49;41.60;19.70
44121;DHT22;29783;52.504;13.478;2023-07-09T15:46:19;41.60;21.10
44121;DHT22;29783;52.504;13.478;2023-07-09T15:48:47;41.10;20.60
44121;DHT22;29783;52.504;13.478;2023-07-09T15:51:13;40.60;21.40
44121;DHT22;29783;52.504;13.478;2023-07-09T15:53:39;40.30;21.50
44121;DHT22;29783;52.504;13.478;2023-07-09T15:58:42;40.70;20.40
44121;DHT22;29783;52.504;13.478;2023-07-09T16:01:13;40.50;21.00
44121;DHT22;29783;52.504;13.478;2023-07-09T16:03:45;40.20;21.00
44121;DHT22;29783;52.504;13.478;2023-07-09T16:06:11;39.90;21.40
44121;DHT22;29783;52.504;13.478;2023-07-09T16:08:36;40.10;21.10
44121;DHT22;29783;52.504;13.478;2023-07-09T16:11:15;39.90;22.10